ZKPCA NZPM-NZAP
Flight info
| Callsign | ZKPCA |
|---|---|
| Flight time | N/A |
| Altitude | 2000 |
| Route | NZPM NZDV NZYP NZHS NZNR NZRK NZAP |
| Aircraft | C172/L-V/N |
Departure
| Time | 2026-04-30 09:48 |
|---|---|
| Airport | Palmerston North Airport (NZPM) |
Arrival
| Time | N/A |
|---|---|
| Airport | Taupo Airport (NZAP) |
| Time | Latitude | Longitude | Altitude | Speed | Heading |
|---|---|---|---|---|---|
| 2026-04-30 09:42 | -40.32289 | 175.62269 | 161 ft | 0 kts | 86° |
| 2026-04-30 09:44 | -40.32288 | 175.62276 | 161 ft | 6 kts | 83° |
| 2026-04-30 09:44 | -40.32266 | 175.62274 | 161 ft | 0 kts | 293° |
| 2026-04-30 09:44 | -40.32239 | 175.62242 | 161 ft | 6 kts | 20° |
| 2026-04-30 09:45 | -40.32217 | 175.62277 | 161 ft | 3 kts | 63° |
| 2026-04-30 09:45 | -40.32227 | 175.62293 | 161 ft | 1 kts | 161° |
| 2026-04-30 09:45 | -40.32234 | 175.62291 | 161 ft | 0 kts | 207° |
| 2026-04-30 09:46 | -40.32234 | 175.62260 | 161 ft | 0 kts | 306° |
| 2026-04-30 09:46 | -40.32187 | 175.62249 | 160 ft | 17 kts | 30° |
| 2026-04-30 09:47 | -40.32091 | 175.62313 | 162 ft | 17 kts | 16° |
| 2026-04-30 09:47 | -40.31986 | 175.62241 | 161 ft | 33 kts | 269° |
| 2026-04-30 09:47 | -40.31987 | 175.61684 | 159 ft | 84 kts | 270° |
| 2026-04-30 09:47 | -40.31996 | 175.60869 | 352 ft | 89 kts | 265° |
| 2026-04-30 09:48 | -40.31800 | 175.60190 | 491 ft | 93 kts | 19° |
| 2026-04-30 09:48 | -40.31622 | 175.60909 | 585 ft | 101 kts | 89° |
| 2026-04-30 09:48 | -40.31533 | 175.61872 | 672 ft | 111 kts | 85° |
| 2026-04-30 09:48 | -40.31419 | 175.62852 | 752 ft | 91 kts | 82° |
| 2026-04-30 09:49 | -40.31373 | 175.63511 | 778 ft | 69 kts | 90° |
| 2026-04-30 09:49 | -40.31483 | 175.64125 | 623 ft | 67 kts | 123° |
| 2026-04-30 09:49 | -40.31878 | 175.64262 | 661 ft | 69 kts | 207° |
| 2026-04-30 09:49 | -40.31985 | 175.63602 | 423 ft | 81 kts | 270° |
| 2026-04-30 09:50 | -40.31991 | 175.62918 | 252 ft | 69 kts | 270° |
| 2026-04-30 09:50 | -40.31987 | 175.62304 | 179 ft | 65 kts | 269° |
| 2026-04-30 09:50 | -40.31984 | 175.61785 | 152 ft | 39 kts | 270° |
| 2026-04-30 09:50 | -40.31993 | 175.61474 | 149 ft | 36 kts | 269° |
| 2026-04-30 09:51 | -40.32060 | 175.61343 | 148 ft | 13 kts | 172° |
| 2026-04-30 09:51 | -40.32162 | 175.61434 | 150 ft | 23 kts | 139° |
| 2026-04-30 09:51 | -40.32235 | 175.61547 | 152 ft | 14 kts | 95° |
| 2026-04-30 09:51 | -40.32235 | 175.61833 | 155 ft | 36 kts | 93° |
| 2026-04-30 09:52 | -40.32243 | 175.62034 | 158 ft | 9 kts | 102° |
| 2026-04-30 09:52 | -40.32263 | 175.62174 | 160 ft | 9 kts | 176° |
| 2026-04-30 09:52 | -40.32006 | 175.61970 | 157 ft | 16 kts | 206° |
| 2026-04-30 09:52 | -40.32128 | 175.61963 | 151 ft | 24 kts | 176° |
| 2026-04-30 09:53 | -40.32241 | 175.61948 | 157 ft | 13 kts | 225° |
| 2026-04-30 09:53 | -40.32238 | 175.61748 | 154 ft | 39 kts | 271° |
| 2026-04-30 09:53 | -40.32206 | 175.61449 | 150 ft | 19 kts | 311° |
| 2026-04-30 09:53 | -40.32106 | 175.61367 | 149 ft | 9 kts | 333° |
| 2026-04-30 09:54 | -40.32067 | 175.61351 | 148 ft | 4 kts | 357° |
| 2026-04-30 09:54 | -40.32058 | 175.61350 | 148 ft | 0 kts | 0° |
| 2026-04-30 09:54 | -40.32057 | 175.61350 | 148 ft | 3 kts | 359° |
| 2026-04-30 09:54 | -40.31993 | 175.61368 | 147 ft | 11 kts | 43° |
| 2026-04-30 09:55 | -40.31981 | 175.61426 | 148 ft | 0 kts | 87° |
| 2026-04-30 09:55 | -40.31981 | 175.61455 | 148 ft | 20 kts | 90° |
| 2026-04-30 09:55 | -40.31977 | 175.61820 | 153 ft | 64 kts | 88° |
| 2026-04-30 09:56 | -40.31960 | 175.62525 | 311 ft | 84 kts | 86° |
| 2026-04-30 09:56 | -40.31859 | 175.63221 | 691 ft | 72 kts | 82° |
| 2026-04-30 09:56 | -40.31723 | 175.63930 | 909 ft | 83 kts | 79° |
| 2026-04-30 09:56 | -40.31566 | 175.64708 | 1101 ft | 95 kts | 78° |
| 2026-04-30 09:57 | -40.31348 | 175.65609 | 1159 ft | 108 kts | 76° |
| 2026-04-30 09:57 | -40.31120 | 175.66579 | 1201 ft | 115 kts | 76° |
| 2026-04-30 09:57 | -40.30882 | 175.67611 | 1205 ft | 120 kts | 76° |
| 2026-04-30 09:57 | -40.30648 | 175.68644 | 1333 ft | 112 kts | 77° |
| 2026-04-30 09:58 | -40.30437 | 175.69520 | 1780 ft | 89 kts | 76° |
| 2026-04-30 09:58 | -40.30235 | 175.70212 | 2183 ft | 78 kts | 75° |
| 2026-04-30 09:58 | -40.30038 | 175.70868 | 2440 ft | 77 kts | 75° |
| 2026-04-30 09:58 | -40.29840 | 175.71518 | 2722 ft | 76 kts | 75° |
| 2026-04-30 09:59 | -40.29460 | 175.72929 | 3012 ft | 96 kts | 91° |
| 2026-04-30 09:59 | -40.30461 | 175.73546 | 3011 ft | 132 kts | 197° |
| 2026-04-30 10:00 | -40.31348 | 175.71350 | 3011 ft | 145 kts | 249° |
| 2026-04-30 10:00 | -40.31660 | 175.70094 | 2905 ft | 150 kts | 249° |
| 2026-04-30 10:01 | -40.31573 | 175.67589 | 1829 ft | 139 kts | 269° |
| 2026-04-30 10:01 | -40.31605 | 175.66354 | 1335 ft | 122 kts | 238° |
| 2026-04-30 10:01 | -40.31896 | 175.66764 | 1432 ft | 101 kts | 90° |
| 2026-04-30 10:02 | -40.31412 | 175.68724 | 1361 ft | 122 kts | 94° |
| 2026-04-30 10:02 | -40.31648 | 175.69767 | 1349 ft | 120 kts | 110° |
| 2026-04-30 10:02 | -40.31914 | 175.70801 | 1360 ft | 116 kts | 100° |
| 2026-04-30 10:02 | -40.31972 | 175.71858 | 1384 ft | 116 kts | 105° |
| 2026-04-30 10:03 | -40.32153 | 175.72909 | 1347 ft | 118 kts | 97° |
| 2026-04-30 10:03 | -40.31800 | 175.73726 | 1396 ft | 120 kts | 24° |
| 2026-04-30 10:03 | -40.31269 | 175.74508 | 1431 ft | 105 kts | 76° |
| 2026-04-30 10:03 | -40.30868 | 175.75256 | 1379 ft | 115 kts | 34° |
| 2026-04-30 10:04 | -40.30385 | 175.75989 | 1650 ft | 96 kts | 81° |
| 2026-04-30 10:04 | -40.30388 | 175.76843 | 1356 ft | 104 kts | 113° |
| 2026-04-30 10:04 | -40.30678 | 175.77751 | 1319 ft | 108 kts | 109° |
| 2026-04-30 10:04 | -40.31081 | 175.78576 | 1306 ft | 100 kts | 130° |
| 2026-04-30 10:05 | -40.31282 | 175.79455 | 1374 ft | 103 kts | 110° |
| 2026-04-30 10:05 | -40.31614 | 175.80296 | 1359 ft | 107 kts | 105° |
| 2026-04-30 10:05 | -40.31847 | 175.81318 | 1207 ft | 122 kts | 114° |
| 2026-04-30 10:05 | -40.32517 | 175.81832 | 1137 ft | 109 kts | 182° |
| 2026-04-30 10:06 | -40.33279 | 175.81774 | 1211 ft | 115 kts | 175° |
| 2026-04-30 10:06 | -40.34081 | 175.81746 | 1382 ft | 107 kts | 145° |
| 2026-04-30 10:06 | -40.34009 | 175.82630 | 1482 ft | 112 kts | 81° |
| 2026-04-30 10:06 | -40.33963 | 175.83764 | 1169 ft | 134 kts | 85° |
| 2026-04-30 10:07 | -40.33903 | 175.84799 | 1232 ft | 113 kts | 192° |
| 2026-04-30 10:07 | -40.33839 | 175.84881 | 1289 ft | 83 kts | 99° |
| 2026-04-30 10:07 | -40.33665 | 175.85642 | 1462 ft | 101 kts | 64° |
| 2026-04-30 10:07 | -40.33321 | 175.86541 | 1463 ft | 119 kts | 64° |
| 2026-04-30 10:08 | -40.32923 | 175.87501 | 1462 ft | 126 kts | 66° |
| 2026-04-30 10:08 | -40.32608 | 175.88583 | 1414 ft | 126 kts | 72° |
| 2026-04-30 10:08 | -40.32346 | 175.89665 | 1414 ft | 124 kts | 75° |
| 2026-04-30 10:08 | -40.32108 | 175.90752 | 1417 ft | 124 kts | 75° |
| 2026-04-30 10:09 | -40.31869 | 175.91855 | 1417 ft | 124 kts | 75° |
| 2026-04-30 10:09 | -40.31633 | 175.92947 | 1415 ft | 124 kts | 76° |
| 2026-04-30 10:09 | -40.31327 | 175.93975 | 1467 ft | 120 kts | 63° |
| 2026-04-30 10:09 | -40.30933 | 175.94936 | 1502 ft | 121 kts | 63° |
| 2026-04-30 10:10 | -40.30528 | 175.95913 | 1505 ft | 122 kts | 62° |
| 2026-04-30 10:10 | -40.30123 | 175.96892 | 1506 ft | 122 kts | 63° |
| 2026-04-30 10:10 | -40.29713 | 175.97866 | 1505 ft | 123 kts | 62° |
| 2026-04-30 10:10 | -40.29310 | 175.98856 | 1506 ft | 123 kts | 63° |
| 2026-04-30 10:11 | -40.28846 | 175.99797 | 1512 ft | 124 kts | 56° |
| 2026-04-30 10:11 | -40.28285 | 176.00665 | 1511 ft | 125 kts | 49° |
| 2026-04-30 10:11 | -40.27693 | 176.01498 | 1511 ft | 125 kts | 47° |
| 2026-04-30 10:11 | -40.27101 | 176.02305 | 1498 ft | 114 kts | 48° |
| 2026-04-30 10:12 | -40.26618 | 176.02957 | 1427 ft | 92 kts | 45° |
| 2026-04-30 10:12 | -40.26202 | 176.03541 | 1297 ft | 84 kts | 52° |
| 2026-04-30 10:12 | -40.25898 | 176.04190 | 1135 ft | 83 kts | 65° |
| 2026-04-30 10:12 | -40.25617 | 176.04775 | 1092 ft | 64 kts | 47° |
| 2026-04-30 10:13 | -40.25336 | 176.05193 | 1041 ft | 62 kts | 53° |
| 2026-04-30 10:13 | -40.25049 | 176.05632 | 982 ft | 63 kts | 51° |
| 2026-04-30 10:13 | -40.24747 | 176.06043 | 918 ft | 63 kts | 47° |
| 2026-04-30 10:13 | -40.24444 | 176.06444 | 851 ft | 62 kts | 45° |
| 2026-04-30 10:14 | -40.24129 | 176.06831 | 772 ft | 62 kts | 47° |
| 2026-04-30 10:14 | -40.23820 | 176.07204 | 690 ft | 60 kts | 43° |
| 2026-04-30 10:14 | -40.23291 | 176.07775 | 657 ft | 34 kts | 34° |
| 2026-04-30 10:15 | -40.23100 | 176.07984 | 650 ft | 43 kts | 87° |
| 2026-04-30 10:15 | -40.23152 | 176.08456 | 699 ft | 63 kts | 70° |
| 2026-04-30 10:15 | -40.22819 | 176.08899 | 873 ft | 74 kts | 44° |
| 2026-04-30 10:15 | -40.22436 | 176.09323 | 1089 ft | 79 kts | 11° |
| 2026-04-30 10:16 | -40.22353 | 176.08974 | 1023 ft | 88 kts | 238° |
| 2026-04-30 10:16 | -40.22770 | 176.08385 | 700 ft | 90 kts | 219° |
| 2026-04-30 10:16 | -40.23159 | 176.07935 | 658 ft | 57 kts | 214° |
| 2026-04-30 10:17 | -40.23764 | 176.07301 | 811 ft | 61 kts | 217° |
| 2026-04-30 10:17 | -40.23840 | 176.06549 | 1074 ft | 82 kts | 40° |
| 2026-04-30 10:17 | -40.23354 | 176.06931 | 1324 ft | 87 kts | 16° |
| 2026-04-30 10:18 | -40.22715 | 176.07036 | 1499 ft | 97 kts | 356° |
| 2026-04-30 10:18 | -40.22052 | 176.07421 | 1525 ft | 111 kts | 38° |
| 2026-04-30 10:18 | -40.21468 | 176.07914 | 1633 ft | 80 kts | 37° |
| 2026-04-30 10:19 | -40.20659 | 176.08515 | 1590 ft | 63 kts | 39° |
| 2026-04-30 10:19 | -40.20278 | 176.08669 | 1538 ft | 72 kts | 12° |
| 2026-04-30 10:19 | -40.19712 | 176.08847 | 1595 ft | 100 kts | 3° |
| 2026-04-30 10:19 | -40.19092 | 176.08947 | 2045 ft | 72 kts | 28° |
| 2026-04-30 10:20 | -40.18597 | 176.09370 | 2194 ft | 86 kts | 44° |
| 2026-04-30 10:20 | -40.17738 | 176.10606 | 2618 ft | 91 kts | 49° |
| 2026-04-30 10:20 | -40.17241 | 176.11212 | 2661 ft | 108 kts | 48° |
| 2026-04-30 10:21 | -40.16661 | 176.11940 | 2554 ft | 121 kts | 49° |
| 2026-04-30 10:21 | -40.16047 | 176.12722 | 2430 ft | 125 kts | 49° |
| 2026-04-30 10:21 | -40.15479 | 176.13576 | 2296 ft | 124 kts | 57° |
| 2026-04-30 10:21 | -40.14953 | 176.14498 | 1970 ft | 134 kts | 57° |
| 2026-04-30 10:22 | -40.14388 | 176.15544 | 1519 ft | 139 kts | 56° |
| 2026-04-30 10:22 | -40.13866 | 176.16532 | 1516 ft | 128 kts | 57° |
| 2026-04-30 10:22 | -40.13371 | 176.17478 | 1511 ft | 125 kts | 57° |
| 2026-04-30 10:22 | -40.12881 | 176.18409 | 1510 ft | 124 kts | 57° |
| 2026-04-30 10:23 | -40.12391 | 176.19337 | 1524 ft | 126 kts | 57° |
| 2026-04-30 10:23 | -40.11882 | 176.20278 | 1521 ft | 127 kts | 58° |
| 2026-04-30 10:23 | -40.11357 | 176.21194 | 1515 ft | 126 kts | 57° |
| 2026-04-30 10:23 | -40.10831 | 176.22107 | 1518 ft | 126 kts | 57° |
| 2026-04-30 10:24 | -40.10304 | 176.23018 | 1514 ft | 126 kts | 57° |
| 2026-04-30 10:24 | -40.09778 | 176.23930 | 1516 ft | 126 kts | 57° |
| 2026-04-30 10:24 | -40.09249 | 176.24842 | 1519 ft | 126 kts | 56° |
| 2026-04-30 10:24 | -40.08729 | 176.25732 | 1684 ft | 115 kts | 56° |
| 2026-04-30 10:25 | -40.08261 | 176.26520 | 1914 ft | 111 kts | 56° |
| 2026-04-30 10:25 | -40.07781 | 176.27329 | 2012 ft | 118 kts | 56° |
| 2026-04-30 10:25 | -40.07268 | 176.28197 | 2018 ft | 123 kts | 56° |
| 2026-04-30 10:25 | -40.06743 | 176.29086 | 2021 ft | 124 kts | 56° |
| 2026-04-30 10:26 | -40.06213 | 176.29984 | 2023 ft | 125 kts | 56° |
| 2026-04-30 10:26 | -40.05685 | 176.30876 | 2024 ft | 124 kts | 56° |
| 2026-04-30 10:26 | -40.05156 | 176.31769 | 2025 ft | 125 kts | 56° |
| 2026-04-30 10:26 | -40.04627 | 176.32665 | 2023 ft | 125 kts | 56° |
| 2026-04-30 10:27 | -40.04095 | 176.33562 | 2021 ft | 125 kts | 56° |
| 2026-04-30 10:27 | -40.03565 | 176.34457 | 2021 ft | 124 kts | 56° |
| 2026-04-30 10:27 | -40.03035 | 176.35353 | 2022 ft | 125 kts | 56° |
| 2026-04-30 10:27 | -40.02505 | 176.36250 | 2021 ft | 125 kts | 56° |
| 2026-04-30 10:28 | -40.01977 | 176.37147 | 2023 ft | 125 kts | 56° |
| 2026-04-30 10:28 | -40.01446 | 176.38045 | 2023 ft | 125 kts | 56° |
| 2026-04-30 10:28 | -40.00916 | 176.38945 | 2024 ft | 125 kts | 56° |
| 2026-04-30 10:28 | -40.00385 | 176.39991 | 1349 ft | 147 kts | 53° |
| 2026-04-30 10:29 | -39.99784 | 176.40920 | 1416 ft | 107 kts | 50° |
| 2026-04-30 10:29 | -39.99355 | 176.41574 | 1423 ft | 87 kts | 41° |
| 2026-04-30 10:29 | -39.99153 | 176.42136 | 1391 ft | 82 kts | 123° |
| 2026-04-30 10:29 | -39.99442 | 176.42693 | 1491 ft | 73 kts | 107° |
| 2026-04-30 10:30 | -39.99543 | 176.43354 | 1490 ft | 77 kts | 94° |
| 2026-04-30 10:30 | -39.99681 | 176.44019 | 1497 ft | 78 kts | 97° |
| 2026-04-30 10:30 | -39.99778 | 176.44723 | 1506 ft | 75 kts | 98° |
| 2026-04-30 10:30 | -39.99832 | 176.45391 | 1534 ft | 84 kts | 90° |
| 2026-04-30 10:31 | -39.99798 | 176.46329 | 1388 ft | 116 kts | 91° |
| 2026-04-30 10:31 | -39.99817 | 176.47367 | 1505 ft | 113 kts | 94° |
| 2026-04-30 10:31 | -39.99889 | 176.48389 | 1489 ft | 120 kts | 96° |
| 2026-04-30 10:31 | -39.99784 | 176.49525 | 1204 ft | 132 kts | 78° |
| 2026-04-30 10:32 | -39.99841 | 176.50692 | 1139 ft | 128 kts | 89° |
| 2026-04-30 10:32 | -39.99770 | 176.51862 | 1011 ft | 130 kts | 90° |
| 2026-04-30 10:32 | -40.00081 | 176.52992 | 849 ft | 131 kts | 127° |
| 2026-04-30 10:32 | -40.00787 | 176.53635 | 956 ft | 121 kts | 139° |
| 2026-04-30 10:33 | -40.01403 | 176.53358 | 839 ft | 129 kts | 283° |
| 2026-04-30 10:33 | -40.00647 | 176.52997 | 688 ft | 101 kts | 351° |
| 2026-04-30 10:33 | -40.00101 | 176.53136 | 482 ft | 69 kts | 42° |
| 2026-04-30 10:33 | -39.99814 | 176.53467 | 430 ft | 42 kts | 49° |
| 2026-04-30 10:34 | -39.99505 | 176.53787 | 453 ft | 76 kts | 33° |
| 2026-04-30 10:34 | -39.99099 | 176.54275 | 690 ft | 86 kts | 37° |
| 2026-04-30 10:34 | -39.98603 | 176.54736 | 984 ft | 88 kts | 23° |
| 2026-04-30 10:34 | -39.97957 | 176.55136 | 994 ft | 112 kts | 25° |
| 2026-04-30 10:35 | -39.97253 | 176.55593 | 1190 ft | 107 kts | 27° |
| 2026-04-30 10:35 | -39.96643 | 176.55995 | 1621 ft | 93 kts | 27° |
| 2026-04-30 10:35 | -39.96050 | 176.56341 | 1921 ft | 94 kts | 26° |
| 2026-04-30 10:35 | -39.95401 | 176.56697 | 2023 ft | 112 kts | 26° |
| 2026-04-30 10:36 | -39.94640 | 176.57118 | 2020 ft | 124 kts | 26° |
| 2026-04-30 10:36 | -39.93834 | 176.57569 | 2019 ft | 127 kts | 25° |
| 2026-04-30 10:36 | -39.93017 | 176.58018 | 2020 ft | 128 kts | 25° |
| 2026-04-30 10:36 | -39.92196 | 176.58466 | 2019 ft | 128 kts | 26° |
| 2026-04-30 10:37 | -39.91372 | 176.58921 | 2019 ft | 129 kts | 24° |
| 2026-04-30 10:37 | -39.90553 | 176.59398 | 2016 ft | 129 kts | 26° |
| 2026-04-30 10:37 | -39.89734 | 176.59891 | 2018 ft | 130 kts | 27° |
| 2026-04-30 10:37 | -39.88915 | 176.60388 | 2019 ft | 130 kts | 27° |
| 2026-04-30 10:38 | -39.88095 | 176.60883 | 2018 ft | 130 kts | 27° |
| 2026-04-30 10:38 | -39.87278 | 176.61376 | 2016 ft | 129 kts | 28° |
| 2026-04-30 10:38 | -39.86464 | 176.61867 | 2016 ft | 129 kts | 27° |
| 2026-04-30 10:38 | -39.85641 | 176.62354 | 2017 ft | 131 kts | 26° |
| 2026-04-30 10:39 | -39.84810 | 176.62837 | 2019 ft | 131 kts | 26° |
| 2026-04-30 10:39 | -39.83977 | 176.63320 | 2017 ft | 131 kts | 26° |
| 2026-04-30 10:39 | -39.83149 | 176.63799 | 2015 ft | 130 kts | 26° |
| 2026-04-30 10:39 | -39.82326 | 176.64272 | 2011 ft | 129 kts | 26° |
| 2026-04-30 10:40 | -39.81509 | 176.64746 | 2009 ft | 129 kts | 26° |
| 2026-04-30 10:40 | -39.80686 | 176.65217 | 2009 ft | 129 kts | 26° |
| 2026-04-30 10:40 | -39.79863 | 176.65691 | 2007 ft | 129 kts | 26° |
| 2026-04-30 10:40 | -39.79044 | 176.66164 | 2006 ft | 129 kts | 26° |
| 2026-04-30 10:41 | -39.78226 | 176.66636 | 2006 ft | 129 kts | 26° |
| 2026-04-30 10:41 | -39.77408 | 176.67111 | 2007 ft | 129 kts | 27° |
| 2026-04-30 10:41 | -39.76595 | 176.67609 | 2008 ft | 129 kts | 27° |
| 2026-04-30 10:41 | -39.75779 | 176.68105 | 2010 ft | 130 kts | 27° |
| 2026-04-30 10:42 | -39.74997 | 176.68692 | 2007 ft | 130 kts | 38° |
| 2026-04-30 10:42 | -39.74259 | 176.69367 | 2005 ft | 129 kts | 37° |
| 2026-04-30 10:42 | -39.73536 | 176.70028 | 2005 ft | 129 kts | 37° |
| 2026-04-30 10:42 | -39.72801 | 176.70703 | 1920 ft | 133 kts | 37° |
| 2026-04-30 10:43 | -39.71948 | 176.71341 | 1522 ft | 146 kts | 25° |
| 2026-04-30 10:43 | -39.71067 | 176.71861 | 1512 ft | 135 kts | 26° |
| 2026-04-30 10:43 | -39.70225 | 176.72362 | 1506 ft | 132 kts | 25° |
| 2026-04-30 10:43 | -39.69393 | 176.72859 | 1509 ft | 131 kts | 25° |
| 2026-04-30 10:44 | -39.68555 | 176.73347 | 1437 ft | 134 kts | 22° |
| 2026-04-30 10:44 | -39.67845 | 176.73880 | 1233 ft | 108 kts | 37° |
| 2026-04-30 10:44 | -39.67235 | 176.74452 | 904 ft | 106 kts | 37° |
| 2026-04-30 10:44 | -39.66753 | 176.74938 | 670 ft | 75 kts | 39° |
| 2026-04-30 10:45 | -39.66362 | 176.75296 | 492 ft | 65 kts | 30° |
| 2026-04-30 10:45 | -39.65981 | 176.75573 | 363 ft | 60 kts | 27° |
| 2026-04-30 10:45 | -39.65586 | 176.75851 | 284 ft | 69 kts | 26° |
| 2026-04-30 10:45 | -39.65148 | 176.76170 | 191 ft | 76 kts | 24° |
| 2026-04-30 10:46 | -39.64746 | 176.76469 | 91 ft | 52 kts | 28° |
| 2026-04-30 10:46 | -39.64362 | 176.76751 | 131 ft | 78 kts | 24° |
| 2026-04-30 10:46 | -39.63992 | 176.77233 | 397 ft | 78 kts | 94° |
| 2026-04-30 10:46 | -39.64143 | 176.77100 | 521 ft | 77 kts | 315° |
| 2026-04-30 10:47 | -39.63697 | 176.76553 | 645 ft | 97 kts | 304° |
| 2026-04-30 10:47 | -39.63645 | 176.75678 | 864 ft | 97 kts | 251° |
| 2026-04-30 10:47 | -39.64037 | 176.74924 | 1016 ft | 106 kts | 208° |
| 2026-04-30 10:47 | -39.64680 | 176.74605 | 1370 ft | 92 kts | 167° |
| 2026-04-30 10:48 | -39.64937 | 176.75494 | 1193 ft | 95 kts | 88° |
| 2026-04-30 10:48 | -39.64892 | 176.76397 | 859 ft | 108 kts | 79° |
| 2026-04-30 10:48 | -39.64828 | 176.77053 | 666 ft | 104 kts | 68° |
| 2026-04-30 10:48 | -39.64478 | 176.77679 | 731 ft | 82 kts | 349° |
| 2026-04-30 10:49 | -39.63953 | 176.78029 | 531 ft | 92 kts | 23° |
| 2026-04-30 10:49 | -39.63381 | 176.78280 | 575 ft | 87 kts | 13° |
| 2026-04-30 10:49 | -39.62894 | 176.78290 | 690 ft | 73 kts | 289° |
| 2026-04-30 10:49 | -39.63241 | 176.77734 | 455 ft | 88 kts | 216° |
| 2026-04-30 10:50 | -39.63672 | 176.77278 | 218 ft | 71 kts | 213° |
| 2026-04-30 10:50 | -39.64051 | 176.76977 | 112 ft | 55 kts | 210° |
| 2026-04-30 10:50 | -39.64333 | 176.76775 | 96 ft | 55 kts | 208° |
| 2026-04-30 10:50 | -39.64788 | 176.76461 | 178 ft | 84 kts | 209° |
| 2026-04-30 10:51 | -39.65279 | 176.76306 | 476 ft | 82 kts | 179° |
| 2026-04-30 10:51 | -39.65720 | 176.75893 | 664 ft | 94 kts | 251° |
| 2026-04-30 10:51 | -39.65487 | 176.75239 | 1051 ft | 83 kts | 339° |
| 2026-04-30 10:51 | -39.64934 | 176.75432 | 1340 ft | 87 kts | 21° |
| 2026-04-30 10:52 | -39.64353 | 176.75747 | 1522 ft | 101 kts | 25° |
| 2026-04-30 10:52 | -39.63627 | 176.76142 | 1515 ft | 122 kts | 24° |
| 2026-04-30 10:52 | -39.62819 | 176.76582 | 1518 ft | 128 kts | 24° |
| 2026-04-30 10:52 | -39.61988 | 176.77032 | 1511 ft | 130 kts | 24° |
| 2026-04-30 10:53 | -39.61152 | 176.77484 | 1512 ft | 131 kts | 24° |
| 2026-04-30 10:53 | -39.60315 | 176.77939 | 1512 ft | 130 kts | 24° |
| 2026-04-30 10:53 | -39.59479 | 176.78391 | 1511 ft | 130 kts | 24° |
| 2026-04-30 10:53 | -39.58640 | 176.78843 | 1516 ft | 131 kts | 24° |
| 2026-04-30 10:54 | -39.57800 | 176.79299 | 1512 ft | 131 kts | 24° |
| 2026-04-30 10:54 | -39.56962 | 176.79753 | 1507 ft | 130 kts | 24° |
| 2026-04-30 10:54 | -39.56124 | 176.80206 | 1510 ft | 131 kts | 24° |
| 2026-04-30 10:54 | -39.55283 | 176.80658 | 1511 ft | 131 kts | 24° |
| 2026-04-30 10:55 | -39.54442 | 176.81114 | 1507 ft | 131 kts | 24° |
| 2026-04-30 10:55 | -39.53601 | 176.81568 | 1497 ft | 131 kts | 24° |
| 2026-04-30 10:55 | -39.52769 | 176.82031 | 1498 ft | 130 kts | 24° |
| 2026-04-30 10:55 | -39.51942 | 176.82513 | 1491 ft | 130 kts | 24° |
| 2026-04-30 10:56 | -39.51117 | 176.82991 | 1494 ft | 130 kts | 24° |
| 2026-04-30 10:56 | -39.50299 | 176.83467 | 1492 ft | 131 kts | 24° |
| 2026-04-30 10:56 | -39.49468 | 176.83947 | 1499 ft | 130 kts | 24° |
| 2026-04-30 10:56 | -39.48641 | 176.84428 | 1497 ft | 130 kts | 24° |
| 2026-04-30 10:57 | -39.47780 | 176.84881 | 1026 ft | 151 kts | 11° |
| 2026-04-30 10:57 | -39.46933 | 176.85322 | 904 ft | 93 kts | 12° |
| 2026-04-30 10:57 | -39.46432 | 176.85524 | 838 ft | 75 kts | 6° |
| 2026-04-30 10:57 | -39.45902 | 176.85648 | 735 ft | 78 kts | 13° |
| 2026-04-30 10:58 | -39.45374 | 176.85872 | 604 ft | 82 kts | 15° |
| 2026-04-30 10:58 | -39.45162 | 176.86335 | 587 ft | 68 kts | 130° |
| 2026-04-30 10:58 | -39.45610 | 176.86755 | 326 ft | 84 kts | 161° |
| 2026-04-30 10:58 | -39.46166 | 176.86818 | 146 ft | 82 kts | 180° |
| 2026-04-30 10:59 | -39.46640 | 176.86766 | 80 ft | 54 kts | 186° |
| 2026-04-30 10:59 | -39.46939 | 176.86733 | 76 ft | 37 kts | 186° |
| 2026-04-30 10:59 | -39.47206 | 176.86664 | 73 ft | 41 kts | 182° |
| 2026-04-30 10:59 | -39.47375 | 176.86720 | 73 ft | 16 kts | 101° |
| 2026-04-30 11:00 | -39.47371 | 176.86820 | 74 ft | 9 kts | 94° |
| 2026-04-30 11:00 | -39.47244 | 176.86839 | 74 ft | 48 kts | 1° |
| 2026-04-30 11:00 | -39.46903 | 176.86859 | 74 ft | 47 kts | 4° |
| 2026-04-30 11:00 | -39.46679 | 176.86918 | 73 ft | 18 kts | 47° |
| 2026-04-30 11:01 | -39.46676 | 176.87054 | 74 ft | 16 kts | 108° |
| 2026-04-30 11:01 | -39.46716 | 176.87116 | 74 ft | 7 kts | 187° |
| 2026-04-30 11:01 | -39.46717 | 176.87086 | 75 ft | 4 kts | 4° |
| 2026-04-30 11:01 | -39.46716 | 176.87086 | 74 ft | 0 kts | 5° |